Time;durP1;ratioP1;P1;durP2;ratioP2;P2;SDS_P1;SDS_P2;PMS_P1;PMS_P2;Temp;Humidity;BMP_temperature;BMP_pressure;BME280_temperature;BME280_humidity;BME280_pressure;Samples;Min_cycle;Max_cycle;Signal;HPM_P1;HPM_P2
2022/05/16 00:00:52;;;;;;;;;;;16.60;98.50;;;;;;5010432;28;20383;-77
2022/05/16 00:03:17;;;;;;;;;;;16.50;96.40;;;;;;5013027;28;19932;-77
2022/05/16 00:05:43;;;;;;;;;;;16.50;95.80;;;;;;5011531;28;19933;-77
2022/05/16 00:08:08;;;;;;;;;;;16.40;96.70;;;;;;5002778;28;20008;-77
2022/05/16 00:10:34;;;;;;;;;;;16.40;99.30;;;;;;4991958;28;19934;-77
2022/05/16 00:13:01;;;;;;;;;;;16.30;98.30;;;;;;4992167;28;19987;-77
2022/05/16 00:15:27;;;;;;;;;;;16.30;98.00;;;;;;4993027;28;19961;-77
2022/05/16 00:17:53;;;;;;;;;;;16.20;96.70;;;;;;4992490;28;19965;-77
2022/05/16 00:20:18;;;;;;;;;;;16.20;99.90;;;;;;4992713;28;19922;-77
2022/05/16 00:22:44;;;;;;;;;;;16.10;99.20;;;;;;5005477;28;19925;-77
2022/05/16 00:25:10;;;;;;;;;;;16.00;99.90;;;;;;5012403;28;20442;-77
2022/05/16 00:27:36;;;;;;;;;;;16.00;98.90;;;;;;5010864;28;19925;-77
2022/05/16 00:30:03;;;;;;;;;;;15.90;99.90;;;;;;5011886;28;19991;-77
2022/05/16 00:32:29;;;;;;;;;;;15.90;99.90;;;;;;5011508;28;19929;-77
2022/05/16 00:34:55;;;;;;;;;;;15.80;99.90;;;;;;5011530;28;20298;-77
2022/05/16 00:37:20;;;;;;;;;;;15.80;99.90;;;;;;5011129;28;20378;-77
2022/05/16 00:39:46;;;;;;;;;;;15.70;99.90;;;;;;4995345;28;20015;-77
2022/05/16 00:42:12;;;;;;;;;;;15.70;99.90;;;;;;5010196;28;19965;-77
2022/05/16 00:44:38;;;;;;;;;;;15.70;99.90;;;;;;5013166;28;19968;-77
2022/05/16 00:47:04;;;;;;;;;;;15.70;99.90;;;;;;5011390;28;20286;-77
2022/05/16 00:49:31;;;;;;;;;;;15.60;99.90;;;;;;5011805;28;19935;-77
2022/05/16 00:52:17;;;;;;;;;;;15.60;99.90;;;;;;5011588;28;19979;-77
2022/05/16 00:54:43;;;;;;;;;;;15.50;99.90;;;;;;5011797;28;20366;-79
2022/05/16 00:57:11;;;;;;;;;;;15.50;99.90;;;;;;5010388;28;19968;-77
2022/05/16 00:59:40;;;;;;;;;;;15.50;99.90;;;;;;5011582;28;20259;-77
2022/05/16 01:04:50;;;;;;;;;;;15.50;99.90;;;;;;5011417;28;19925;-77
2022/05/16 01:07:20;;;;;;;;;;;15.40;99.90;;;;;;4996508;28;19926;-77
2022/05/16 01:09:45;;;;;;;;;;;15.40;99.90;;;;;;4991307;28;19926;-77
2022/05/16 01:12:12;;;;;;;;;;;15.40;99.90;;;;;;4989807;28;20012;-77
2022/05/16 01:14:39;;;;;;;;;;;15.30;99.90;;;;;;4992121;28;19999;-77
2022/05/16 01:17:04;;;;;;;;;;;15.30;99.90;;;;;;4990968;28;19933;-77
2022/05/16 01:19:30;;;;;;;;;;;15.30;99.90;;;;;;4997028;28;19921;-77
2022/05/16 01:21:58;;;;;;;;;;;15.30;99.90;;;;;;4993835;28;20370;-77
2022/05/16 01:24:25;;;;;;;;;;;15.30;99.90;;;;;;5011468;28;19929;-77
2022/05/16 01:26:52;;;;;;;;;;;15.30;99.90;;;;;;5010169;28;19948;-77
2022/05/16 01:29:19;;;;;;;;;;;15.20;99.90;;;;;;5010430;28;19975;-77
2022/05/16 01:31:45;;;;;;;;;;;15.20;99.90;;;;;;5010635;28;19930;-78
2022/05/16 01:34:11;;;;;;;;;;;15.10;99.90;;;;;;5000967;28;19930;-77
2022/05/16 01:36:37;;;;;;;;;;;15.10;99.90;;;;;;4997191;28;19921;-77
2022/05/16 01:39:03;;;;;;;;;;;15.10;99.90;;;;;;4994154;28;20020;-77
2022/05/16 01:41:28;;;;;;;;;;;15.00;99.90;;;;;;5009138;28;20020;-77
2022/05/16 01:43:56;;;;;;;;;;;15.00;99.90;;;;;;5010009;28;19929;-77
2022/05/16 01:46:27;;;;;;;;;;;15.00;99.90;;;;;;4994457;28;19921;-77
2022/05/16 01:48:53;;;;;;;;;;;14.90;99.90;;;;;;5010495;28;19925;-77
2022/05/16 01:51:19;;;;;;;;;;;14.90;99.90;;;;;;5011490;28;19925;-77
2022/05/16 01:53:45;;;;;;;;;;;14.90;99.90;;;;;;5012290;28;19944;-77
2022/05/16 01:56:11;;;;;;;;;;;14.80;99.90;;;;;;5010897;28;20398;-77
2022/05/16 01:58:37;;;;;;;;;;;14.80;99.90;;;;;;4995432;28;19925;-77
2022/05/16 02:01:03;;;;;;;;;;;14.80;99.90;;;;;;5011517;28;19925;-77
2022/05/16 02:03:28;;;;;;;;;;;14.80;99.90;;;;;;4997873;28;19935;-77
2022/05/16 02:05:54;;;;;;;;;;;14.80;99.90;;;;;;4991286;28;20012;-77
2022/05/16 02:08:20;;;;;;;;;;;14.80;99.90;;;;;;4992145;28;19926;-77
2022/05/16 02:10:47;;;;;;;;;;;14.80;99.90;;;;;;4991358;28;20008;-77
2022/05/16 02:13:12;;;;;;;;;;;14.80;99.90;;;;;;5003460;28;19926;-77
2022/05/16 02:15:39;;;;;;;;;;;14.70;99.90;;;;;;4991917;28;19975;-77
2022/05/16 02:18:06;;;;;;;;;;;14.70;99.90;;;;;;4999739;28;20005;-77
2022/05/16 02:20:31;;;;;;;;;;;14.70;99.90;;;;;;5010751;28;19967;-78
2022/05/16 02:25:44;;;;;;;;;;;14.70;99.90;;;;;;5005455;28;20418;-77
2022/05/16 02:28:11;;;;;;;;;;;14.70;99.90;;;;;;5010328;28;19979;-77
2022/05/16 02:30:37;;;;;;;;;;;14.70;99.90;;;;;;5011519;28;19929;-77
2022/05/16 02:33:03;;;;;;;;;;;14.70;99.90;;;;;;5009610;28;19971;-77
2022/05/16 02:35:30;;;;;;;;;;;14.70;99.90;;;;;;5010740;28;19921;-78
2022/05/16 02:37:58;;;;;;;;;;;14.60;99.90;;;;;;4994542;28;19921;-78
2022/05/16 02:40:28;;;;;;;;;;;14.60;99.90;;;;;;4991563;28;19930;-78
2022/05/16 02:42:53;;;;;;;;;;;14.60;99.90;;;;;;4990582;28;19929;-78
2022/05/16 02:45:19;;;;;;;;;;;14.60;99.90;;;;;;4993759;28;19929;-77
2022/05/16 02:47:45;;;;;;;;;;;14.50;99.90;;;;;;5010844;28;19922;-77
2022/05/16 02:50:11;;;;;;;;;;;14.50;99.90;;;;;;5010254;28;20289;-77
2022/05/16 02:52:36;;;;;;;;;;;14.40;99.90;;;;;;5010564;28;19929;-78
2022/05/16 02:55:02;;;;;;;;;;;14.40;99.90;;;;;;5010749;28;20079;-77
2022/05/16 02:57:29;;;;;;;;;;;14.40;99.90;;;;;;4982610;28;19929;-77
2022/05/16 02:59:55;;;;;;;;;;;14.30;99.90;;;;;;4991665;28;19975;-78
2022/05/16 03:02:20;;;;;;;;;;;14.30;99.90;;;;;;4990991;28;20012;-77
2022/05/16 03:04:46;;;;;;;;;;;14.30;99.90;;;;;;4994600;28;20362;-77
2022/05/16 03:07:11;;;;;;;;;;;14.30;99.90;;;;;;5009183;28;19921;-77
2022/05/16 03:09:38;;;;;;;;;;;14.30;99.90;;;;;;5010967;28;20409;-77
2022/05/16 03:12:03;;;;;;;;;;;14.20;99.90;;;;;;5008840;28;19926;-77
2022/05/16 03:14:29;;;;;;;;;;;14.20;99.90;;;;;;5010513;28;19975;-77
2022/05/16 03:16:55;;;;;;;;;;;14.20;99.90;;;;;;5010888;28;19940;-78
2022/05/16 03:19:20;;;;;;;;;;;14.10;99.90;;;;;;5011343;28;20516;-78
2022/05/16 03:21:46;;;;;;;;;;;14.10;99.90;;;;;;4990346;28;19922;-77
2022/05/16 03:24:12;;;;;;;;;;;14.10;99.90;;;;;;4974411;28;20016;-77
2022/05/16 03:26:38;;;;;;;;;;;14.10;99.90;;;;;;4989926;28;19969;-77
2022/05/16 03:29:06;;;;;;;;;;;14.10;99.90;;;;;;5021698;28;19971;-78
2022/05/16 03:31:32;;;;;;;;;;;14.00;99.90;;;;;;4990678;28;19922;-77
2022/05/16 03:33:57;;;;;;;;;;;14.00;99.90;;;;;;4974930;28;19921;-77
2022/05/16 03:36:23;;;;;;;;;;;14.00;99.90;;;;;;4994188;28;19921;-77
2022/05/16 03:41:33;;;;;;;;;;;13.90;99.90;;;;;;5009060;28;20302;-77
2022/05/16 03:43:58;;;;;;;;;;;13.90;99.90;;;;;;4995425;28;19925;-78
2022/05/16 03:46:25;;;;;;;;;;;13.80;99.90;;;;;;4990096;28;19944;-77
2022/05/16 03:48:51;;;;;;;;;;;13.80;99.90;;;;;;4990564;28;20379;-77
2022/05/16 03:51:17;;;;;;;;;;;13.80;99.90;;;;;;4993483;28;19926;-77
2022/05/16 03:53:46;;;;;;;;;;;13.80;99.90;;;;;;5010088;28;19925;-77
2022/05/16 03:56:15;;;;;;;;;;;13.70;99.90;;;;;;4973079;28;19929;-77
2022/05/16 03:58:41;;;;;;;;;;;13.70;99.90;;;;;;4990300;28;20028;-78
2022/05/16 04:01:08;;;;;;;;;;;13.70;99.90;;;;;;4997830;28;20019;-78
2022/05/16 04:03:34;;;;;;;;;;;13.70;99.90;;;;;;4987342;28;19929;-78
2022/05/16 04:06:00;;;;;;;;;;;13.70;99.90;;;;;;4990011;28;19948;-77
2022/05/16 04:08:26;;;;;;;;;;;13.70;99.90;;;;;;4989889;28;19940;-78
2022/05/16 04:10:51;;;;;;;;;;;13.70;99.90;;;;;;4989585;28;19980;-78
2022/05/16 04:13:17;;;;;;;;;;;13.70;99.90;;;;;;4989858;28;19922;-77
2022/05/16 04:15:42;;;;;;;;;;;13.70;99.90;;;;;;4993216;28;19925;-78
2022/05/16 04:18:08;;;;;;;;;;;13.70;99.90;;;;;;5009731;28;19925;-78
2022/05/16 04:20:34;;;;;;;;;;;13.70;99.90;;;;;;5005840;28;20033;-78
2022/05/16 04:22:59;;;;;;;;;;;13.70;99.90;;;;;;4992228;28;19921;-78
2022/05/16 04:25:25;;;;;;;;;;;13.70;99.90;;;;;;4992679;28;19965;-78
2022/05/16 04:27:50;;;;;;;;;;;13.80;99.90;;;;;;5008253;28;19945;-78
2022/05/16 04:30:16;;;;;;;;;;;13.70;99.90;;;;;;5008997;28;19921;-78
2022/05/16 04:32:41;;;;;;;;;;;13.80;99.90;;;;;;5003021;28;20409;-77
2022/05/16 04:35:07;;;;;;;;;;;13.80;99.90;;;;;;5006941;28;19926;-77
2022/05/16 04:37:33;;;;;;;;;;;13.70;99.90;;;;;;5009918;28;19980;-75
2022/05/16 04:40:00;;;;;;;;;;;13.70;99.90;;;;;;5009744;28;19925;-77
2022/05/16 04:42:40;;;;;;;;;;;13.70;99.90;;;;;;5007228;28;19929;-77
2022/05/16 04:45:08;;;;;;;;;;;13.70;99.90;;;;;;5009767;28;20378;-76
2022/05/16 04:47:33;;;;;;;;;;;13.70;99.90;;;;;;4994485;28;19987;-80
2022/05/16 04:49:59;;;;;;;;;;;13.80;99.90;;;;;;5013424;28;20378;-74
2022/05/16 04:52:25;;;;;;;;;;;13.80;99.90;;;;;;5009022;28;20379;-75
2022/05/16 04:54:51;;;;;;;;;;;13.80;99.90;;;;;;4993846;28;19985;-75
2022/05/16 04:57:18;;;;;;;;;;;13.80;99.90;;;;;;4994830;28;19925;-75
2022/05/16 04:59:47;;;;;;;;;;;13.80;99.90;;;;;;5013480;28;19921;-75
2022/05/16 05:02:12;;;;;;;;;;;13.80;99.90;;;;;;5012593;28;20408;-76
2022/05/16 05:04:38;;;;;;;;;;;13.80;99.90;;;;;;5012588;28;19968;-75
2022/05/16 05:07:03;;;;;;;;;;;13.90;99.90;;;;;;5012059;28;19976;-75
2022/05/16 05:09:29;;;;;;;;;;;13.90;99.90;;;;;;5007583;28;20101;-75
2022/05/16 05:14:41;;;;;;;;;;;14.00;99.90;;;;;;5010312;28;20398;-76
2022/05/16 05:17:08;;;;;;;;;;;14.00;99.90;;;;;;5012893;28;19925;-76
2022/05/16 05:19:35;;;;;;;;;;;14.00;99.90;;;;;;5012254;28;19925;-75
2022/05/16 05:22:00;;;;;;;;;;;14.10;99.90;;;;;;5012039;28;20203;-76
2022/05/16 05:24:26;;;;;;;;;;;14.10;99.90;;;;;;5012486;28;19933;-76
2022/05/16 05:26:52;;;;;;;;;;;14.10;99.90;;;;;;5011949;28;20039;-76
2022/05/16 05:29:18;;;;;;;;;;;14.20;99.90;;;;;;5011509;28;20034;-76
2022/05/16 05:31:45;;;;;;;;;;;14.20;99.90;;;;;;4999499;28;19952;-76
2022/05/16 05:34:11;;;;;;;;;;;14.20;99.90;;;;;;4992743;28;19932;-78
2022/05/16 05:36:38;;;;;;;;;;;14.30;99.90;;;;;;5005907;28;19925;-76
2022/05/16 05:39:04;;;;;;;;;;;14.40;99.90;;;;;;4992653;28;20102;-76
2022/05/16 05:41:30;;;;;;;;;;;14.40;99.90;;;;;;4990851;28;19921;-76
2022/05/16 05:43:56;;;;;;;;;;;14.90;99.90;;;;;;4992435;28;19922;-76
2022/05/16 05:46:21;;;;;;;;;;;14.60;99.90;;;;;;5001963;28;20031;-76
2022/05/16 05:48:47;;;;;;;;;;;14.70;99.90;;;;;;4995770;28;20016;-76
2022/05/16 05:51:14;;;;;;;;;;;14.80;99.90;;;;;;4995177;28;19971;-77
2022/05/16 05:53:41;;;;;;;;;;;14.80;99.90;;;;;;5012019;28;19921;-76
2022/05/16 05:56:07;;;;;;;;;;;14.90;99.90;;;;;;4995067;28;19972;-76
2022/05/16 05:58:33;;;;;;;;;;;15.00;99.90;;;;;;5010833;28;20850;-76
2022/05/16 06:00:59;;;;;;;;;;;15.10;99.90;;;;;;5011964;28;20016;-76
2022/05/16 06:03:25;;;;;;;;;;;15.20;99.90;;;;;;5011658;28;19925;-75
2022/05/16 06:05:51;;;;;;;;;;;15.20;99.90;;;;;;5011365;28;19931;-76
2022/05/16 06:08:16;;;;;;;;;;;15.30;99.90;;;;;;5011649;28;19921;-77
2022/05/16 06:10:42;;;;;;;;;;;15.30;99.90;;;;;;5009429;28;20459;-75
2022/05/16 06:13:08;;;;;;;;;;;15.30;99.90;;;;;;5011122;28;19928;-76
2022/05/16 06:15:34;;;;;;;;;;;15.40;99.90;;;;;;4994583;28;20386;-76
2022/05/16 06:17:59;;;;;;;;;;;15.40;99.90;;;;;;5011541;28;19928;-76
2022/05/16 06:20:25;;;;;;;;;;;15.50;99.90;;;;;;5011130;28;19921;-76
2022/05/16 06:22:50;;;;;;;;;;;15.60;99.90;;;;;;5000071;28;19930;-76
2022/05/16 06:25:32;;;;;;;;;;;15.60;99.90;;;;;;4975994;28;19933;-75
2022/05/16 06:28:03;;;;;;;;;;;15.70;99.90;;;;;;4995026;28;20075;-76
2022/05/16 06:30:32;;;;;;;;;;;15.80;99.90;;;;;;5011002;28;19931;-76
2022/05/16 06:32:58;;;;;;;;;;;15.80;99.90;;;;;;4991163;28;19965;-76
2022/05/16 06:35:24;;;;;;;;;;;15.90;99.90;;;;;;5009278;28;19968;-76
2022/05/16 06:37:50;;;;;;;;;;;16.00;99.90;;;;;;5010617;28;19925;-76
2022/05/16 06:40:17;;;;;;;;;;;16.00;99.90;;;;;;5011499;28;19957;-76
2022/05/16 06:42:42;;;;;;;;;;;16.10;99.90;;;;;;5009075;28;19931;-76
2022/05/16 06:45:09;;;;;;;;;;;16.20;99.90;;;;;;5011086;28;20016;-75
2022/05/16 06:47:34;;;;;;;;;;;16.30;99.90;;;;;;5010080;28;19952;-83
2022/05/16 06:50:00;;;;;;;;;;;16.40;99.90;;;;;;5004442;28;19925;-83
2022/05/16 06:52:25;;;;;;;;;;;16.50;99.90;;;;;;5004564;28;20280;-81
2022/05/16 06:54:51;;;;;;;;;;;16.60;99.90;;;;;;4993050;28;19922;-83
2022/05/16 06:57:17;;;;;;;;;;;16.60;99.90;;;;;;4989987;28;20294;-82
2022/05/16 06:59:43;;;;;;;;;;;16.70;99.90;;;;;;4990460;28;19922;-82
2022/05/16 07:02:09;;;;;;;;;;;16.70;99.90;;;;;;4991823;28;19926;-82
2022/05/16 07:04:36;;;;;;;;;;;16.80;99.90;;;;;;4999058;28;19925;-81
2022/05/16 07:07:04;;;;;;;;;;;16.90;99.90;;;;;;5000567;28;19968;-82
2022/05/16 07:09:30;;;;;;;;;;;17.00;99.90;;;;;;4987607;28;19957;-82
2022/05/16 07:11:55;;;;;;;;;;;17.10;99.90;;;;;;4997695;28;19975;-82
2022/05/16 07:14:21;;;;;;;;;;;17.20;99.90;;;;;;5010238;28;19928;-80
2022/05/16 07:16:47;;;;;;;;;;;17.20;99.90;;;;;;5005357;28;19948;-81
2022/05/16 07:19:12;;;;;;;;;;;17.30;99.90;;;;;;4979241;28;20459;-80
2022/05/16 07:21:38;;;;;;;;;;;17.40;99.90;;;;;;4995113;28;19948;-81
2022/05/16 07:24:04;;;;;;;;;;;17.50;99.80;;;;;;4984066;28;20017;-80
2022/05/16 07:29:20;;;;;;;;;;;17.60;98.80;;;;;;4986596;28;20343;-82
2022/05/16 07:31:46;;;;;;;;;;;17.80;97.50;;;;;;5001492;28;20481;-79
2022/05/16 07:34:12;;;;;;;;;;;17.80;98.10;;;;;;5008843;28;19969;-80
2022/05/16 07:36:39;;;;;;;;;;;18.00;98.10;;;;;;5009274;28;19963;-79
2022/05/16 07:39:04;;;;;;;;;;;18.10;97.60;;;;;;4990134;28;20322;-76
2022/05/16 07:41:31;;;;;;;;;;;18.20;97.10;;;;;;4981958;28;19933;-77
2022/05/16 07:43:57;;;;;;;;;;;18.40;96.00;;;;;;5009672;28;20007;-76
2022/05/16 07:46:23;;;;;;;;;;;18.50;96.30;;;;;;5011349;28;19928;-76
2022/05/16 07:48:49;;;;;;;;;;;18.60;95.60;;;;;;5009818;28;20291;-81
2022/05/16 07:51:15;;;;;;;;;;;18.80;95.00;;;;;;5008551;28;19925;-81
2022/05/16 07:53:40;;;;;;;;;;;18.90;94.40;;;;;;5008596;28;19960;-81
2022/05/16 07:56:06;;;;;;;;;;;19.00;93.90;;;;;;4976632;28;19925;-81
2022/05/16 07:58:34;;;;;;;;;;;19.10;93.80;;;;;;5009144;28;20011;-80
2022/05/16 08:00:59;;;;;;;;;;;19.20;93.70;;;;;;5010215;28;20351;-81
2022/05/16 08:03:26;;;;;;;;;;;19.30;92.30;;;;;;5002398;28;19968;-81
2022/05/16 08:05:51;;;;;;;;;;;19.30;92.60;;;;;;4998555;28;19975;-81
2022/05/16 08:11:03;;;;;;;;;;;19.50;92.00;;;;;;4959691;28;19936;-81
2022/05/16 08:13:29;;;;;;;;;;;19.60;91.90;;;;;;4988933;28;19932;-81
2022/05/16 08:15:55;;;;;;;;;;;19.70;91.40;;;;;;4990532;28;19929;-81
2022/05/16 08:18:21;;;;;;;;;;;19.80;90.60;;;;;;4990086;28;19933;-79
2022/05/16 08:20:47;;;;;;;;;;;19.80;90.50;;;;;;5006010;28;20388;-83
2022/05/16 08:23:16;;;;;;;;;;;19.90;90.50;;;;;;5010736;28;19978;-84
2022/05/16 08:25:45;;;;;;;;;;;20.00;90.20;;;;;;5008834;28;19932;-82
2022/05/16 08:28:11;;;;;;;;;;;20.10;90.40;;;;;;4995914;28;19975;-82
2022/05/16 08:30:37;;;;;;;;;;;20.20;89.00;;;;;;5010737;28;19929;-83
2022/05/16 08:33:02;;;;;;;;;;;20.20;87.80;;;;;;5035221;28;20385;-82
2022/05/16 08:35:28;;;;;;;;;;;20.30;86.90;;;;;;5011834;28;19928;-81
2022/05/16 08:40:38;;;;;;;;;;;20.50;86.60;;;;;;5011949;28;20500;-82
2022/05/16 08:43:13;;;;;;;;;;;20.70;87.50;;;;;;5012692;28;19929;-82
2022/05/16 08:45:40;;;;;;;;;;;20.80;88.20;;;;;;5013130;28;19929;-83
2022/05/16 08:48:09;;;;;;;;;;;20.90;86.20;;;;;;5013194;28;20371;-82
2022/05/16 08:50:57;;;;;;;;;;;21.10;85.80;;;;;;5006972;28;19929;-74
2022/05/16 08:53:35;;;;;;;;;;;21.20;85.30;;;;;;4993838;28;19932;-75
2022/05/16 08:56:03;;;;;;;;;;;21.40;84.40;;;;;;4992857;28;19926;-76
2022/05/16 08:58:48;;;;;;;;;;;21.50;82.90;;;;;;4993142;28;19925;-75
2022/05/16 09:01:16;;;;;;;;;;;21.60;83.10;;;;;;4993654;28;19926;-76
2022/05/16 09:03:50;;;;;;;;;;;21.80;83.40;;;;;;4993273;28;20008;-76
2022/05/16 09:06:19;;;;;;;;;;;21.90;82.20;;;;;;5006894;28;20370;-76
2022/05/16 09:09:03;;;;;;;;;;;21.90;82.30;;;;;;5012596;28;19937;-75
2022/05/16 09:11:33;;;;;;;;;;;22.10;82.10;;;;;;5012098;28;19933;-75
2022/05/16 09:14:11;;;;;;;;;;;22.20;80.90;;;;;;5005194;28;19945;-76
2022/05/16 09:16:53;;;;;;;;;;;22.30;80.70;;;;;;4992921;28;19984;-75
2022/05/16 09:19:31;;;;;;;;;;;22.40;79.20;;;;;;4992952;28;19921;-80
2022/05/16 09:22:02;;;;;;;;;;;22.40;79.60;;;;;;4975799;28;20359;-78
2022/05/16 09:24:35;;;;;;;;;;;22.50;78.70;;;;;;4997545;28;19921;-78
2022/05/16 09:27:06;;;;;;;;;;;22.60;78.90;;;;;;5010817;28;19921;-78
2022/05/16 09:29:37;;;;;;;;;;;22.60;77.80;;;;;;5012381;28;19921;-79
2022/05/16 09:32:11;;;;;;;;;;;22.60;76.70;;;;;;5012279;28;19926;-78
2022/05/16 09:34:37;;;;;;;;;;;22.60;78.60;;;;;;4995258;28;19929;-78
2022/05/16 09:37:03;;;;;;;;;;;22.70;78.00;;;;;;5010216;28;19921;-76
2022/05/16 09:39:31;;;;;;;;;;;22.70;79.20;;;;;;5001978;28;19972;-78
2022/05/16 09:42:14;;;;;;;;;;;22.80;80.20;;;;;;4990400;28;19925;-78
2022/05/16 09:44:48;;;;;;;;;;;23.00;78.70;;;;;;5011688;28;19926;-80
2022/05/16 09:47:35;;;;;;;;;;;23.10;75.80;;;;;;5013133;28;19922;-78
2022/05/16 09:50:05;;;;;;;;;;;23.20;75.20;;;;;;5002886;28;20418;-78
2022/05/16 09:52:46;;;;;;;;;;;23.40;73.30;;;;;;5000922;28;19931;-78
2022/05/16 09:55:14;;;;;;;;;;;23.50;74.10;;;;;;5011671;28;19921;-78
2022/05/16 09:57:46;;;;;;;;;;;23.60;74.30;;;;;;5009464;28;19922;-78
2022/05/16 10:00:30;;;;;;;;;;;23.70;71.80;;;;;;4995849;28;19928;-78
2022/05/16 10:03:01;;;;;;;;;;;23.80;73.00;;;;;;4995283;28;20359;-78
2022/05/16 10:05:29;;;;;;;;;;;23.80;72.20;;;;;;4995422;28;19928;-78
2022/05/16 10:07:59;;;;;;;;;;;23.90;71.80;;;;;;5011257;28;20281;-77
2022/05/16 10:10:28;;;;;;;;;;;23.90;71.60;;;;;;5011732;28;19936;-78
2022/05/16 10:12:54;;;;;;;;;;;24.00;73.10;;;;;;5009514;28;19925;-81
2022/05/16 10:15:21;;;;;;;;;;;24.10;71.40;;;;;;5011933;28;19921;-82
2022/05/16 10:17:47;;;;;;;;;;;24.30;72.30;;;;;;5011168;28;19921;-81
2022/05/16 10:20:13;;;;;;;;;;;24.50;71.80;;;;;;5010275;28;19925;-80
2022/05/16 10:22:39;;;;;;;;;;;24.80;69.80;;;;;;4992736;28;19921;-81
2022/05/16 10:25:08;;;;;;;;;;;24.90;69.90;;;;;;5007969;28;20294;-80
2022/05/16 10:27:36;;;;;;;;;;;25.00;69.80;;;;;;5008940;28;19988;-82
2022/05/16 10:30:07;;;;;;;;;;;25.20;70.50;;;;;;5009805;28;20392;-82
2022/05/16 10:35:24;;;;;;;;;;;25.40;69.50;;;;;;5009822;28;19960;-82
2022/05/16 10:37:52;;;;;;;;;;;25.50;67.90;;;;;;4991466;28;20012;-81
2022/05/16 10:40:28;;;;;;;;;;;25.40;65.30;;;;;;5009990;28;19940;-82
2022/05/16 10:43:08;;;;;;;;;;;25.40;66.20;;;;;;5005337;28;20410;-82
2022/05/16 10:45:34;;;;;;;;;;;25.40;66.00;;;;;;5007725;28;19927;-82
2022/05/16 10:48:19;;;;;;;;;;;25.50;66.00;;;;;;5009149;28;20000;-83
2022/05/16 10:50:44;;;;;;;;;;;25.40;66.80;;;;;;4990962;28;19929;-81
2022/05/16 10:53:22;;;;;;;;;;;25.40;66.50;;;;;;5008420;28;19925;-82
2022/05/16 10:55:51;;;;;;;;;;;25.30;65.00;;;;;;4975247;28;20433;-82
2022/05/16 10:58:21;;;;;;;;;;;25.30;64.70;;;;;;5004272;28;20464;-82
2022/05/16 11:01:13;;;;;;;;;;;25.20;65.40;;;;;;5006160;28;20403;-82
2022/05/16 11:03:57;;;;;;;;;;;25.10;64.80;;;;;;5004494;28;19997;-81
2022/05/16 11:06:26;;;;;;;;;;;25.10;64.80;;;;;;5004903;28;20281;-82
2022/05/16 11:08:52;;;;;;;;;;;25.00;66.80;;;;;;5009142;28;20397;-82
2022/05/16 11:11:19;;;;;;;;;;;24.90;66.20;;;;;;4991361;28;19922;-82
2022/05/16 11:13:48;;;;;;;;;;;24.80;66.60;;;;;;5000710;28;19930;-82
2022/05/16 11:16:14;;;;;;;;;;;24.60;66.20;;;;;;4989059;28;19922;-82
2022/05/16 11:18:58;;;;;;;;;;;24.50;66.20;;;;;;4990403;28;19944;-82
2022/05/16 11:21:27;;;;;;;;;;;24.40;65.70;;;;;;4990108;28;20017;-82
2022/05/16 11:23:55;;;;;;;;;;;24.20;66.10;;;;;;4990622;28;20029;-81
2022/05/16 11:26:47;;;;;;;;;;;24.10;66.70;;;;;;5008396;28;19976;-81
2022/05/16 11:29:18;;;;;;;;;;;24.00;67.00;;;;;;4967298;28;19922;-76
2022/05/16 11:31:50;;;;;;;;;;;23.90;67.80;;;;;;5007183;28;20378;-76
2022/05/16 11:34:34;;;;;;;;;;;23.80;68.70;;;;;;4990943;28;20342;-76
2022/05/16 11:37:05;;;;;;;;;;;23.70;70.40;;;;;;4997206;28;19925;-76
2022/05/16 11:39:40;;;;;;;;;;;23.60;69.80;;;;;;5010458;28;20416;-76
2022/05/16 11:42:15;;;;;;;;;;;23.50;71.20;;;;;;5008311;28;20055;-76
2022/05/16 11:44:56;;;;;;;;;;;23.40;72.80;;;;;;5010374;28;20366;-76
2022/05/16 11:47:34;;;;;;;;;;;23.30;73.80;;;;;;4997229;28;20276;-76
2022/05/16 11:50:17;;;;;;;;;;;23.10;74.80;;;;;;4990421;28;19921;-76
2022/05/16 11:52:43;;;;;;;;;;;23.00;76.30;;;;;;4992922;28;20371;-80
2022/05/16 12:01:33;;;;;;;;;;;22.90;79.50;;;;;;5027193;28;19964;-81
2022/05/16 12:04:13;;;;;;;;;;;22.90;80.10;;;;;;5011509;28;19944;-81
2022/05/16 12:06:48;;;;;;;;;;;23.00;83.50;;;;;;5013678;28;19925;-81
2022/05/16 12:09:17;;;;;;;;;;;23.00;81.60;;;;;;5005245;28;19925;-81
2022/05/16 12:11:55;;;;;;;;;;;23.10;83.70;;;;;;5013137;28;19936;-81
2022/05/16 12:14:23;;;;;;;;;;;23.20;84.90;;;;;;5013975;28;19925;-81
2022/05/16 12:17:07;;;;;;;;;;;23.30;81.50;;;;;;5014175;28;19964;-81
2022/05/16 12:19:34;;;;;;;;;;;23.40;82.90;;;;;;5014007;28;19921;-81
2022/05/16 12:22:01;;;;;;;;;;;23.50;82.70;;;;;;5003359;28;19929;-81
2022/05/16 12:24:30;;;;;;;;;;;23.70;81.50;;;;;;5006930;28;20016;-80
2022/05/16 12:26:58;;;;;;;;;;;23.90;82.00;;;;;;4992955;28;19975;-81
2022/05/16 12:29:29;;;;;;;;;;;24.10;80.80;;;;;;4993968;28;20390;-81
2022/05/16 12:31:54;;;;;;;;;;;24.20;79.20;;;;;;4993683;28;20020;-81
2022/05/16 12:34:29;;;;;;;;;;;24.30;78.20;;;;;;5010304;28;20016;-81
2022/05/16 12:36:55;;;;;;;;;;;24.50;78.20;;;;;;5005962;28;19931;-82
2022/05/16 12:39:37;;;;;;;;;;;24.50;78.20;;;;;;5013503;28;19928;-81
2022/05/16 12:42:07;;;;;;;;;;;24.60;75.70;;;;;;5010582;28;19929;-82
2022/05/16 12:44:32;;;;;;;;;;;24.60;74.60;;;;;;5012246;28;19968;-81
2022/05/16 12:46:58;;;;;;;;;;;24.70;75.30;;;;;;5011749;28;19969;-81
2022/05/16 12:49:32;;;;;;;;;;;24.70;76.60;;;;;;5013255;28;19921;-81
2022/05/16 12:52:16;;;;;;;;;;;24.60;75.60;;;;;;5012350;28;19932;-81
2022/05/16 12:54:42;;;;;;;;;;;24.60;74.80;;;;;;5012569;28;19936;-81
2022/05/16 12:57:26;;;;;;;;;;;24.50;74.90;;;;;;4992730;28;19925;-83
2022/05/16 12:59:56;;;;;;;;;;;24.50;75.70;;;;;;5011404;28;19929;-81
2022/05/16 13:02:29;;;;;;;;;;;24.50;75.50;;;;;;5011598;28;19925;-80
2022/05/16 13:05:05;;;;;;;;;;;24.40;75.20;;;;;;5009119;28;20526;-81
2022/05/16 13:07:43;;;;;;;;;;;24.30;76.80;;;;;;5010153;28;19925;-81
2022/05/16 13:10:23;;;;;;;;;;;24.40;77.50;;;;;;4994323;28;19937;-81
2022/05/16 13:12:55;;;;;;;;;;;24.40;75.50;;;;;;5002772;28;19921;-81
2022/05/16 13:15:29;;;;;;;;;;;24.40;77.00;;;;;;5033151;28;19921;-81
2022/05/16 13:17:58;;;;;;;;;;;24.40;77.50;;;;;;5011343;28;19929;-81
2022/05/16 13:20:34;;;;;;;;;;;24.40;74.60;;;;;;5011223;28;19925;-81
2022/05/16 13:23:01;;;;;;;;;;;24.40;75.20;;;;;;4991571;28;19929;-82
2022/05/16 13:25:28;;;;;;;;;;;24.50;75.70;;;;;;5003554;28;19928;-81
2022/05/16 13:30:39;;;;;;;;;;;24.50;75.50;;;;;;5010769;28;19925;-80
2022/05/16 13:33:19;;;;;;;;;;;24.50;75.20;;;;;;4994501;28;20259;-81
2022/05/16 13:35:45;;;;;;;;;;;24.50;75.70;;;;;;5009753;28;19929;-83
2022/05/16 13:38:11;;;;;;;;;;;24.50;75.80;;;;;;4991100;28;19979;-82
2022/05/16 13:40:38;;;;;;;;;;;24.60;75.10;;;;;;5034995;28;19960;-81
2022/05/16 13:43:24;;;;;;;;;;;24.60;74.20;;;;;;5028252;28;19922;-81
2022/05/16 13:45:59;;;;;;;;;;;24.60;73.80;;;;;;5009043;28;19925;-81
2022/05/16 13:48:25;;;;;;;;;;;24.80;73.90;;;;;;5008156;28;19929;-81
2022/05/16 13:50:50;;;;;;;;;;;24.80;74.00;;;;;;5010938;28;20627;-81
2022/05/16 13:53:17;;;;;;;;;;;25.00;73.60;;;;;;5011687;28;19921;-81
2022/05/16 13:55:44;;;;;;;;;;;25.00;72.90;;;;;;5011418;28;19925;-81
2022/05/16 13:58:13;;;;;;;;;;;25.10;73.50;;;;;;5011232;28;20024;-81
2022/05/16 14:00:40;;;;;;;;;;;25.30;71.50;;;;;;5012110;28;19979;-81
2022/05/16 14:03:25;;;;;;;;;;;25.50;72.30;;;;;;5010288;28;19921;-82
2022/05/16 14:05:52;;;;;;;;;;;25.80;70.70;;;;;;5011393;28;20340;-81
2022/05/16 14:08:20;;;;;;;;;;;26.10;70.50;;;;;;5011517;28;19941;-82
2022/05/16 14:10:47;;;;;;;;;;;26.10;69.40;;;;;;5010754;28;19929;-81
2022/05/16 14:13:15;;;;;;;;;;;26.10;69.50;;;;;;5011601;28;19932;-82
2022/05/16 14:16:05;;;;;;;;;;;26.10;69.00;;;;;;5011901;28;20012;-82
2022/05/16 14:18:37;;;;;;;;;;;26.00;68.80;;;;;;5011955;28;20008;-82
2022/05/16 14:21:23;;;;;;;;;;;26.00;68.30;;;;;;5010093;28;19925;-81
2022/05/16 14:23:58;;;;;;;;;;;26.20;69.10;;;;;;5010585;28;19922;-82
2022/05/16 14:26:29;;;;;;;;;;;26.90;69.50;;;;;;5010039;28;20278;-82
2022/05/16 14:28:58;;;;;;;;;;;27.70;68.30;;;;;;5011358;28;19944;-82
2022/05/16 14:31:29;;;;;;;;;;;28.30;63.20;;;;;;5011018;28;19921;-82
2022/05/16 14:33:59;;;;;;;;;;;28.50;65.20;;;;;;5010169;28;20333;-82
2022/05/16 14:36:29;;;;;;;;;;;28.50;64.10;;;;;;5010329;28;19925;-82
2022/05/16 14:39:02;;;;;;;;;;;28.60;64.50;;;;;;5008023;28;20298;-82
2022/05/16 14:41:28;;;;;;;;;;;28.80;60.70;;;;;;5004080;28;19925;-81
2022/05/16 14:44:04;;;;;;;;;;;28.90;62.10;;;;;;5010273;28;20282;-82
2022/05/16 14:46:43;;;;;;;;;;;28.80;60.90;;;;;;4985920;28;19921;-82
2022/05/16 14:49:09;;;;;;;;;;;28.40;60.50;;;;;;5007688;28;19981;-81
2022/05/16 14:51:35;;;;;;;;;;;28.00;61.70;;;;;;4997005;28;19968;-82
2022/05/16 14:54:01;;;;;;;;;;;27.80;60.60;;;;;;5009144;28;19989;-79
2022/05/16 14:56:36;;;;;;;;;;;27.50;61.70;;;;;;4989957;28;19924;-82